createdAt,value
2022-12-12T00:01:31.246Z,31.80
2022-12-12T00:04:20.723Z,32.30
2022-12-12T00:07:09.113Z,29.27
2022-12-12T00:09:57.085Z,30.97
2022-12-12T00:12:45.090Z,32.67
2022-12-12T00:15:33.123Z,30.73
2022-12-12T00:18:21.127Z,30.83
2022-12-12T00:21:15.162Z,32.13
2022-12-12T00:24:03.183Z,28.27
2022-12-12T00:26:51.116Z,24.70
2022-12-12T00:29:39.297Z,28.83
2022-12-12T00:32:27.532Z,29.17
2022-12-12T00:35:15.633Z,30.17
2022-12-12T00:38:04.941Z,25.33
2022-12-12T00:40:57.162Z,28.17
2022-12-12T00:43:45.529Z,29.67
2022-12-12T00:46:33.530Z,25.83
2022-12-12T00:49:21.510Z,25.10
2022-12-12T00:52:09.441Z,25.30
2022-12-12T00:54:58.928Z,30.80
2022-12-12T00:57:46.862Z,27.23
2022-12-12T01:00:35.512Z,28.80
2022-12-12T01:03:23.766Z,28.73
2022-12-12T01:06:12.893Z,27.13
2022-12-12T01:09:01.099Z,30.87
2022-12-12T01:11:50.436Z,27.03
2022-12-12T01:14:38.368Z,30.30
2022-12-12T01:17:27.525Z,28.97
2022-12-12T01:20:19.116Z,30.17
2022-12-12T01:23:07.018Z,30.63
2022-12-12T01:26:00.702Z,31.87
2022-12-12T01:28:50.611Z,27.87
2022-12-12T01:31:38.851Z,30.47
2022-12-12T01:34:26.860Z,28.97
2022-12-12T01:37:14.840Z,32.97
2022-12-12T01:40:03.030Z,35.03
2022-12-12T01:42:51.626Z,33.60
2022-12-12T01:46:19.119Z,32.37
2022-12-12T01:49:14.243Z,30.27
2022-12-12T01:52:06.818Z,30.07
2022-12-12T01:54:58.248Z,31.10
2022-12-12T01:57:50.134Z,30.27
2022-12-12T02:00:38.246Z,28.40
2022-12-12T02:03:26.838Z,30.60
2022-12-12T02:06:19.690Z,30.77
2022-12-12T02:09:10.422Z,33.13
2022-12-12T02:11:58.870Z,29.97
2022-12-12T02:14:52.136Z,32.67
2022-12-12T02:17:53.634Z,33.90
2022-12-12T02:20:55.011Z,27.93
2022-12-12T02:24:29.061Z,32.73
2022-12-12T02:27:53.955Z,28.93
2022-12-12T02:30:49.555Z,30.63
2022-12-12T02:33:42.875Z,30.20
2022-12-12T02:36:37.447Z,30.70
2022-12-12T02:39:34.314Z,29.83
2022-12-12T02:42:27.920Z,29.20
2022-12-12T02:45:21.492Z,31.30
2022-12-12T02:48:14.693Z,33.47
2022-12-12T02:51:07.613Z,30.93
2022-12-12T02:53:55.688Z,33.60
2022-12-12T02:56:47.756Z,33.27
2022-12-12T02:59:38.977Z,29.53
2022-12-12T03:03:19.526Z,27.83
2022-12-12T03:06:41.294Z,25.40
2022-12-12T03:09:41.006Z,27.47
2022-12-12T03:12:38.624Z,25.17
2022-12-12T03:15:35.193Z,24.77
2022-12-12T03:18:28.695Z,29.63
2022-12-12T03:21:23.364Z,29.77
2022-12-12T03:24:18.878Z,28.27
2022-12-12T03:27:12.014Z,25.50
2022-12-12T03:30:03.553Z,32.00
2022-12-12T03:32:58.619Z,27.70
2022-12-12T03:35:51.389Z,31.10
2022-12-12T03:38:45.053Z,32.33
2022-12-12T03:41:37.355Z,31.67
2022-12-12T03:44:30.230Z,31.73
2022-12-12T03:47:23.441Z,32.57
2022-12-12T03:50:17.479Z,31.10
2022-12-12T03:53:11.237Z,33.37
2022-12-12T03:56:06.638Z,31.83
2022-12-12T03:59:00.633Z,32.97
2022-12-12T04:01:53.908Z,29.63
2022-12-12T04:04:48.068Z,30.43
2022-12-12T04:07:41.354Z,38.63
2022-12-12T04:10:51.725Z,37.40
2022-12-12T04:13:50.084Z,36.10
2022-12-12T04:16:43.232Z,38.40
2022-12-12T04:19:58.539Z,34.83
2022-12-12T04:23:10.860Z,33.60
2022-12-12T04:26:25.800Z,34.77
2022-12-12T04:29:29.736Z,34.43
2022-12-12T04:32:23.910Z,35.60
2022-12-12T04:35:15.921Z,33.17
2022-12-12T04:38:07.189Z,36.47
2022-12-12T04:40:58.625Z,42.07
2022-12-12T04:43:50.283Z,35.93
2022-12-12T04:46:41.992Z,39.47
2022-12-12T04:49:33.422Z,35.43
2022-12-12T04:52:23.411Z,37.47
2022-12-12T04:55:16.399Z,38.37
2022-12-12T04:58:07.123Z,36.53
2022-12-12T05:01:01.937Z,41.60
2022-12-12T05:03:55.372Z,37.17
2022-12-12T05:06:46.995Z,36.97
2022-12-12T05:09:36.247Z,37.77
2022-12-12T05:12:24.268Z,35.33
2022-12-12T05:15:13.806Z,35.73
2022-12-12T05:18:06.387Z,38.43
2022-12-12T05:20:55.651Z,35.50
2022-12-12T05:23:43.661Z,39.97
2022-12-12T05:26:33.392Z,39.63
2022-12-12T05:29:27.514Z,38.23
2022-12-12T05:32:15.479Z,36.70
2022-12-12T05:35:03.563Z,40.20
2022-12-12T05:37:52.959Z,40.23
2022-12-12T05:40:40.931Z,41.83
2022-12-12T05:43:30.136Z,40.50
2022-12-12T05:46:18.123Z,40.00
2022-12-12T05:49:06.558Z,40.30
2022-12-12T05:51:55.067Z,41.30
2022-12-12T05:54:44.385Z,42.30
2022-12-12T05:57:32.317Z,41.17
2022-12-12T06:00:20.953Z,41.53
2022-12-12T06:03:08.920Z,38.37
2022-12-12T06:05:57.148Z,40.07
2022-12-12T06:08:45.200Z,40.23
2022-12-12T06:11:34.500Z,38.07
2022-12-12T06:14:22.502Z,36.67
2022-12-12T06:17:10.436Z,43.47
2022-12-12T06:19:58.421Z,39.97
2022-12-12T06:22:52.051Z,42.33
2022-12-12T06:25:41.708Z,36.53
2022-12-12T06:28:31.460Z,36.53
2022-12-12T06:31:19.514Z,41.17
2022-12-12T06:34:08.057Z,37.30
2022-12-12T06:36:55.997Z,41.80
2022-12-12T06:39:43.907Z,35.93
2022-12-12T06:42:31.861Z,39.07
2022-12-12T06:45:21.477Z,44.60
2022-12-12T06:48:09.482Z,41.90
2022-12-12T06:50:57.801Z,40.77
2022-12-12T06:53:46.029Z,42.73
2022-12-12T06:56:34.047Z,44.93
2022-12-12T06:59:22.025Z,38.27
2022-12-12T07:02:12.500Z,35.67
2022-12-12T07:04:40.121Z,37.87
2022-12-12T07:07:07.869Z,43.40
2022-12-12T07:09:35.559Z,37.90
2022-12-12T07:12:03.262Z,40.83
2022-12-12T07:14:30.971Z,40.53
2022-12-12T07:16:59.022Z,40.57
2022-12-12T07:19:28.010Z,40.10
2022-12-12T07:21:55.650Z,38.43
2022-12-12T07:24:23.419Z,37.10
2022-12-12T07:26:51.130Z,40.53
2022-12-12T07:29:18.878Z,39.13
2022-12-12T07:31:46.477Z,42.50
2022-12-12T07:34:14.129Z,37.13
2022-12-12T07:36:43.148Z,35.90
2022-12-12T07:39:12.565Z,38.60
2022-12-12T07:41:43.601Z,37.20
2022-12-12T07:44:11.231Z,40.60
2022-12-12T07:46:39.307Z,37.70
2022-12-12T07:49:07.090Z,36.27
2022-12-12T07:51:34.855Z,36.20
2022-12-12T07:54:03.953Z,39.17
2022-12-12T07:56:31.720Z,37.60
2022-12-12T07:58:59.374Z,37.13
2022-12-12T08:01:29.584Z,43.83
2022-12-12T08:03:57.709Z,42.93
2022-12-12T08:06:25.805Z,39.77
2022-12-12T08:08:54.566Z,39.03
2022-12-12T08:11:26.069Z,40.17
2022-12-12T08:13:54.714Z,40.87
2022-12-12T08:16:24.652Z,40.80
2022-12-12T08:18:54.714Z,43.60
2022-12-12T08:21:25.641Z,44.07
2022-12-12T08:23:56.536Z,46.27
2022-12-12T08:26:26.945Z,38.27
2022-12-12T08:28:56.543Z,42.27
2022-12-12T08:31:24.677Z,39.70
2022-12-12T08:33:53.036Z,41.63
2022-12-12T08:36:23.412Z,45.23
2022-12-12T08:38:51.724Z,44.83
2022-12-12T08:41:20.806Z,48.87
2022-12-12T08:43:50.612Z,45.47
2022-12-12T08:46:22.235Z,40.60
2022-12-12T08:48:50.759Z,41.80
2022-12-12T08:51:19.699Z,44.07
2022-12-12T08:53:49.049Z,44.47
2022-12-12T08:56:18.289Z,43.60
2022-12-12T08:58:46.482Z,44.27
2022-12-12T09:01:17.811Z,45.17
2022-12-12T09:03:46.030Z,45.27
2022-12-12T09:06:14.224Z,45.57
2022-12-12T09:08:42.621Z,45.10
2022-12-12T09:11:10.980Z,44.63
2022-12-12T09:13:39.015Z,46.70
2022-12-12T09:16:08.472Z,51.40
2022-12-12T09:18:40.839Z,45.70
2022-12-12T09:21:12.418Z,47.03
2022-12-12T09:23:40.111Z,41.20
2022-12-12T09:26:09.634Z,44.23
2022-12-12T09:28:37.590Z,46.43
2022-12-12T09:31:06.882Z,50.37
2022-12-12T09:33:35.200Z,51.80
2022-12-12T09:36:07.921Z,49.83
2022-12-12T09:38:36.353Z,53.70
2022-12-12T09:41:11.630Z,51.20
2022-12-12T09:43:45.139Z,52.53
2022-12-12T09:46:23.130Z,59.80
2022-12-12T09:48:50.796Z,54.67
2022-12-12T09:51:25.938Z,55.37
2022-12-12T09:53:53.763Z,54.53
2022-12-12T09:56:28.752Z,61.17
2022-12-12T09:59:05.443Z,58.93
2022-12-12T10:01:39.164Z,59.10
2022-12-12T10:04:16.618Z,52.60
2022-12-12T10:06:52.165Z,60.60
2022-12-12T10:09:35.665Z,53.43
2022-12-12T10:12:08.442Z,50.73
2022-12-12T10:14:41.968Z,55.03
2022-12-12T10:17:16.360Z,50.07
2022-12-12T10:19:50.132Z,54.30
2022-12-12T10:22:26.932Z,58.67
2022-12-12T10:24:59.223Z,46.00
2022-12-12T10:27:26.849Z,53.87
2022-12-12T10:29:55.068Z,53.47
2022-12-12T10:32:34.521Z,57.03
2022-12-12T10:35:18.846Z,54.77
2022-12-12T10:38:01.036Z,47.40
2022-12-12T10:40:49.603Z,50.63
2022-12-12T10:43:22.327Z,55.23
2022-12-12T10:46:12.325Z,56.63
2022-12-12T10:48:40.324Z,55.17
2022-12-12T10:51:12.397Z,62.80
2022-12-12T10:53:42.970Z,63.73
2022-12-12T10:56:13.371Z,69.33
2022-12-12T10:58:43.082Z,75.13
2022-12-12T11:01:14.499Z,74.77
2022-12-12T11:03:45.831Z,74.30
2022-12-12T11:06:16.359Z,77.03
2022-12-12T11:08:56.314Z,76.57
2022-12-12T11:11:25.889Z,71.67
2022-12-12T11:13:55.507Z,81.90
2022-12-12T11:16:25.673Z,87.57
2022-12-12T11:19:07.698Z,83.47
2022-12-12T11:21:37.647Z,83.27
2022-12-12T11:24:10.321Z,88.10
2022-12-12T11:26:46.272Z,89.70
2022-12-12T11:29:35.158Z,85.50
2022-12-12T11:32:04.507Z,83.97
2022-12-12T11:34:34.965Z,96.00
2022-12-12T11:37:04.025Z,95.83
2022-12-12T11:39:38.893Z,88.90
2022-12-12T11:42:19.172Z,94.30
2022-12-12T11:44:57.649Z,96.50
2022-12-12T11:47:28.819Z,90.00
2022-12-12T11:49:58.348Z,101.13
2022-12-12T11:52:30.078Z,99.33
2022-12-12T11:55:00.424Z,97.30
2022-12-12T11:57:44.920Z,104.77
2022-12-12T12:00:16.903Z,97.37
2022-12-12T12:03:14.275Z,109.17
2022-12-12T12:05:52.248Z,99.77
2022-12-12T12:08:35.400Z,98.90
2022-12-12T12:11:18.178Z,98.50
2022-12-12T12:14:04.192Z,106.77
2022-12-12T12:16:47.060Z,105.63
2022-12-12T12:19:20.754Z,99.93
2022-12-12T12:22:01.156Z,112.37
2022-12-12T12:25:04.998Z,112.33
2022-12-12T12:27:42.918Z,110.80
2022-12-12T12:30:20.524Z,118.07
2022-12-12T12:33:16.968Z,117.60
2022-12-12T12:35:57.526Z,117.83
2022-12-12T12:38:29.159Z,129.90
2022-12-12T12:41:15.765Z,122.60
2022-12-12T12:44:04.713Z,121.97
2022-12-12T12:46:40.687Z,124.80
2022-12-12T12:49:16.155Z,130.00
2022-12-12T12:51:50.601Z,135.93
2022-12-12T12:54:23.960Z,128.83
2022-12-12T12:56:57.276Z,127.60
2022-12-12T12:59:33.293Z,133.00
2022-12-12T13:02:05.697Z,137.70
2022-12-12T13:04:42.547Z,146.73
2022-12-12T13:07:17.605Z,132.77
2022-12-12T13:09:51.345Z,131.83
2022-12-12T13:12:26.862Z,132.40
2022-12-12T13:14:59.275Z,131.30
2022-12-12T13:17:40.086Z,138.93
2022-12-12T13:20:16.885Z,139.50
2022-12-12T13:22:58.305Z,131.00
2022-12-12T13:25:35.759Z,133.70
2022-12-12T13:28:11.856Z,126.30
2022-12-12T13:30:58.521Z,142.43
2022-12-12T13:33:39.517Z,123.67
2022-12-12T13:36:12.370Z,145.60
2022-12-12T13:38:41.849Z,142.60
2022-12-12T13:41:11.085Z,147.53
2022-12-12T13:43:45.633Z,136.17
2022-12-12T13:46:38.579Z,141.27
2022-12-12T13:49:29.036Z,131.77
2022-12-12T13:52:27.995Z,127.20
2022-12-12T13:55:18.910Z,134.20
2022-12-12T13:58:17.287Z,124.20
2022-12-12T14:00:45.493Z,136.87
2022-12-12T14:03:31.338Z,145.83
2022-12-12T14:06:11.425Z,145.50
2022-12-12T14:08:47.337Z,134.67
2022-12-12T14:11:27.523Z,133.80
2022-12-12T14:14:18.259Z,138.80
2022-12-12T14:16:53.589Z,112.00
2022-12-12T14:19:35.858Z,133.47
2022-12-12T14:22:04.116Z,127.77
2022-12-12T14:25:06.886Z,132.53
2022-12-12T14:28:04.345Z,123.77
2022-12-12T14:30:45.588Z,116.23
2022-12-12T14:33:42.262Z,118.30
2022-12-12T14:36:49.640Z,113.27
2022-12-12T14:39:33.696Z,120.80
2022-12-12T14:42:05.992Z,106.93
2022-12-12T14:44:36.281Z,106.73
2022-12-12T14:47:08.749Z,104.53
2022-12-12T14:49:36.768Z,105.33
2022-12-12T14:52:06.164Z,107.33
2022-12-12T14:54:34.051Z,114.83
2022-12-12T14:57:02.357Z,90.70
2022-12-12T14:59:33.635Z,91.00
2022-12-12T15:02:07.142Z,100.23
2022-12-12T15:04:38.981Z,94.43
2022-12-12T15:07:23.962Z,84.97
2022-12-12T15:09:51.648Z,78.77
2022-12-12T15:12:22.486Z,79.53
2022-12-12T15:14:56.530Z,79.23
2022-12-12T15:17:27.663Z,77.73
2022-12-12T15:19:58.700Z,72.67
2022-12-12T15:22:29.742Z,72.30
2022-12-12T15:24:59.494Z,72.43
2022-12-12T15:27:31.753Z,68.13
2022-12-12T15:30:00.580Z,67.53
2022-12-12T15:32:29.678Z,64.77
2022-12-12T15:35:04.215Z,63.70
2022-12-12T15:37:34.817Z,62.50
2022-12-12T15:40:19.959Z,61.67
2022-12-12T15:42:52.427Z,57.17
2022-12-12T15:45:25.687Z,53.73
2022-12-12T15:47:55.509Z,54.90
2022-12-12T15:50:26.547Z,59.47
2022-12-12T15:53:05.478Z,51.10
2022-12-12T15:55:34.387Z,48.27
2022-12-12T15:58:02.170Z,51.33
2022-12-12T16:00:34.443Z,51.23
2022-12-12T16:03:06.004Z,49.33
2022-12-12T16:05:37.355Z,42.87
2022-12-12T16:08:32.117Z,48.07
2022-12-12T16:11:01.801Z,38.10
2022-12-12T16:13:37.106Z,40.07
2022-12-12T16:16:36.506Z,46.33
2022-12-12T16:19:06.242Z,42.57
2022-12-12T16:21:36.549Z,42.03
2022-12-12T16:24:20.881Z,41.33
2022-12-12T16:26:48.567Z,38.27
2022-12-12T16:29:16.340Z,40.47
2022-12-12T16:31:44.892Z,41.47
2022-12-12T16:34:12.655Z,38.77
2022-12-12T16:36:42.355Z,37.90
2022-12-12T16:39:13.743Z,38.70
2022-12-12T16:41:42.053Z,35.23
2022-12-12T16:44:09.766Z,34.10
2022-12-12T16:46:37.516Z,31.73
2022-12-12T16:49:07.360Z,34.40
2022-12-12T16:51:37.872Z,29.53
2022-12-12T16:54:05.723Z,32.60
2022-12-12T16:56:34.866Z,29.30
2022-12-12T16:59:02.605Z,34.30
2022-12-12T17:01:33.390Z,30.23
2022-12-12T17:04:05.150Z,28.67
2022-12-12T17:06:32.907Z,36.03
2022-12-12T17:09:00.535Z,33.30
2022-12-12T17:11:28.248Z,29.10
2022-12-12T17:13:57.227Z,30.70
2022-12-12T17:16:27.880Z,32.43
2022-12-12T17:18:56.011Z,29.57
2022-12-12T17:21:23.655Z,32.67
2022-12-12T17:23:51.646Z,28.50
2022-12-12T17:26:19.296Z,27.10
2022-12-12T17:28:46.910Z,29.50
2022-12-12T17:31:15.918Z,23.63
2022-12-12T17:33:50.538Z,28.63
2022-12-12T17:36:19.684Z,25.50
2022-12-12T17:38:48.831Z,26.30
2022-12-12T17:41:16.729Z,22.23
2022-12-12T17:43:44.459Z,25.43
2022-12-12T17:46:15.033Z,27.37
2022-12-12T17:48:47.284Z,25.90
2022-12-12T17:51:16.263Z,24.87
2022-12-12T17:53:44.232Z,24.07
2022-12-12T17:56:14.174Z,27.73
2022-12-12T17:58:43.852Z,26.73
2022-12-12T18:01:12.412Z,23.00
2022-12-12T18:03:40.190Z,26.33
2022-12-12T18:06:11.160Z,25.27
2022-12-12T18:08:39.168Z,21.37
2022-12-12T18:11:08.778Z,23.60
2022-12-12T18:13:38.514Z,25.83
2022-12-12T18:16:08.216Z,23.07
2022-12-12T18:18:36.194Z,20.67
2022-12-12T18:21:05.506Z,22.20
2022-12-12T18:23:35.198Z,22.03
2022-12-12T18:26:05.027Z,25.20
2022-12-12T18:28:32.825Z,24.80
2022-12-12T18:31:00.662Z,24.33
2022-12-12T18:33:28.551Z,19.10
2022-12-12T18:36:01.918Z,21.70
2022-12-12T18:38:30.301Z,22.17
2022-12-12T18:40:59.617Z,23.40
2022-12-12T18:43:28.165Z,24.03
2022-12-12T18:45:55.980Z,23.33
2022-12-12T18:48:23.804Z,21.50
2022-12-12T18:50:51.463Z,24.33
2022-12-12T18:53:19.255Z,19.60
2022-12-12T18:55:47.596Z,16.30
2022-12-12T18:58:16.588Z,19.30
2022-12-12T19:00:46.452Z,21.20
2022-12-12T19:03:14.223Z,18.83
2022-12-12T19:05:44.400Z,20.37
2022-12-12T19:08:12.806Z,18.20
2022-12-12T19:10:41.776Z,21.50
2022-12-12T19:13:09.443Z,19.63
2022-12-12T19:15:38.842Z,23.27
2022-12-12T19:18:06.752Z,22.43
2022-12-12T19:20:36.555Z,17.70
2022-12-12T19:23:04.325Z,20.20
2022-12-12T19:25:40.913Z,21.47
2022-12-12T19:28:11.431Z,16.60
2022-12-12T19:30:42.410Z,20.40
2022-12-12T19:33:10.339Z,19.33
2022-12-12T19:35:38.688Z,16.37
2022-12-12T19:38:06.360Z,19.50
2022-12-12T19:40:34.115Z,18.50
2022-12-12T19:43:02.757Z,16.37
2022-12-12T19:45:31.073Z,18.80
2022-12-12T19:48:00.076Z,19.40
2022-12-12T19:50:27.770Z,19.10
2022-12-12T19:52:55.976Z,21.60
2022-12-12T19:55:24.061Z,20.17
2022-12-12T19:57:51.709Z,19.63
2022-12-12T20:00:20.845Z,19.97
2022-12-12T20:02:48.586Z,19.30
2022-12-12T20:05:17.818Z,20.33
2022-12-12T20:07:45.539Z,20.47
2022-12-12T20:10:13.586Z,20.63
2022-12-12T20:12:51.904Z,18.73
2022-12-12T20:15:24.007Z,19.47
2022-12-12T20:17:51.638Z,17.60
2022-12-12T20:20:21.906Z,19.27
2022-12-12T20:22:49.697Z,20.57
2022-12-12T20:25:17.575Z,20.40
2022-12-12T20:27:45.226Z,19.07
2022-12-12T20:30:13.581Z,19.47
2022-12-12T20:32:41.428Z,19.80
2022-12-12T20:35:09.590Z,20.80
2022-12-12T20:37:38.693Z,20.20
2022-12-12T20:40:08.304Z,18.63
2022-12-12T20:42:36.017Z,18.87
2022-12-12T20:45:03.628Z,18.10
2022-12-12T20:47:33.326Z,18.93
2022-12-12T20:50:01.133Z,18.30
2022-12-12T20:52:29.153Z,22.03
2022-12-12T20:54:58.392Z,20.40
2022-12-12T20:57:26.091Z,23.03
2022-12-12T20:59:54.718Z,19.67
2022-12-12T21:02:26.081Z,20.03
2022-12-12T21:05:15.465Z,17.83
2022-12-12T21:08:03.849Z,17.67
2022-12-12T21:10:53.235Z,19.13
2022-12-12T21:13:41.183Z,17.87
2022-12-12T21:16:31.690Z,16.73
2022-12-12T21:19:19.734Z,19.17
2022-12-12T21:22:08.317Z,16.80
2022-12-12T21:24:56.231Z,18.13
2022-12-12T21:27:45.510Z,15.87
2022-12-12T21:30:33.488Z,15.70
2022-12-12T21:33:21.671Z,17.27
2022-12-12T21:36:12.330Z,17.40
2022-12-12T21:39:02.301Z,15.33
2022-12-12T21:41:51.865Z,19.07
2022-12-12T21:44:45.484Z,17.97
2022-12-12T21:47:33.845Z,16.07
2022-12-12T21:50:26.048Z,17.87
2022-12-12T21:53:35.288Z,17.03
2022-12-12T21:56:23.187Z,15.03
2022-12-12T21:59:11.864Z,17.27
2022-12-12T22:02:01.828Z,16.20
2022-12-12T22:04:49.826Z,16.13
2022-12-12T22:07:37.744Z,15.90
2022-12-12T22:10:25.681Z,14.07
2022-12-12T22:13:13.613Z,16.47
2022-12-12T22:16:04.321Z,16.40
2022-12-12T22:18:54.998Z,14.47
2022-12-12T22:21:45.275Z,15.93
2022-12-12T22:24:33.403Z,12.53
2022-12-12T22:27:21.304Z,14.87
2022-12-12T22:30:10.121Z,13.97
2022-12-12T22:32:58.043Z,14.47
2022-12-12T22:35:47.317Z,13.87
2022-12-12T22:38:38.377Z,14.53
2022-12-12T22:41:27.121Z,11.97
2022-12-12T22:44:16.869Z,14.43
2022-12-12T22:47:04.952Z,13.60
2022-12-12T22:49:53.056Z,14.97
2022-12-12T22:52:42.317Z,14.90
2022-12-12T22:55:30.245Z,13.30
2022-12-12T22:58:18.174Z,14.70
2022-12-12T23:01:10.684Z,13.63
2022-12-12T23:03:59.164Z,13.73
2022-12-12T23:06:47.266Z,14.83
2022-12-12T23:09:36.614Z,16.47
2022-12-12T23:12:24.568Z,15.57
2022-12-12T23:15:12.959Z,14.17
2022-12-12T23:18:01.007Z,13.83
2022-12-12T23:20:48.983Z,16.30
2022-12-12T23:23:37.402Z,12.07
2022-12-12T23:26:30.087Z,13.33
2022-12-12T23:29:20.098Z,12.67
2022-12-12T23:32:08.577Z,14.33
2022-12-12T23:34:56.503Z,13.43
2022-12-12T23:37:44.411Z,13.67
2022-12-12T23:40:32.325Z,14.27
2022-12-12T23:43:21.582Z,14.83
2022-12-12T23:46:27.865Z,13.70
2022-12-12T23:49:18.746Z,14.20
2022-12-12T23:52:06.684Z,12.67
2022-12-12T23:54:54.591Z,15.77
2022-12-12T23:57:42.519Z,13.77
